KBDE/BDE METAR and TAF weather

Enter ICAO airport designator
Station Type Date Time Source
KBDE METAR 2018/01/21 11:53 UTC NOAA

KBDE 211153Z AUTO 30004KT 3/4SM BR VV003 M07/M07 A2996 RMK AO2 SLP164 I6000 T10671072 11067 21106 53008


Station Type Date Time Source
KBDE Decoded METAR 2018/01/21 11:53 UTC NOAA

BAUDETTE INTERNATIONAL AIRPORT, MN, United States (KBDE) 48-44N 94-37W 329M
Jan 21, 2018 - 06:53 AM EST / 2018.01.21 1153 UTC
Wind: from the WNW (300 degrees) at 5 MPH (4 KT):0
Visibility: 3/4 mile(s):0
Sky conditions: obscured
Weather: mist
Temperature: 19.9 F (-6.7 C)
Windchill: 12 F (-11 C):1
Dew Point: 19.0 F (-7.2 C)
Relative Humidity: 96%
Pressure (altimeter): 29.96 in. Hg (1014 hPa)
Pressure tendency: 0.02 inches (0.8 hPa) higher than three hours ago
ob: KBDE 211153Z AUTO 30004KT 3/4SM BR VV003 M07/M07 A2996 RMK AO2 SLP164 I6000 T10671072 11067 21106 53008
cycle: 12

Station Type Date Time Source
KBDE TAF UTC NOAA

Error!


Example: see airport list